Time;durP1;ratioP1;P1;durP2;ratioP2;P2;SDS_P1;SDS_P2;PMS_P1;PMS_P2;Temp;Humidity;BMP_temperature;BMP_pressure;BME280_temperature;BME280_humidity;BME280_pressure;Samples;Min_cycle;Max_cycle;Signal;HPM_P1;HPM_P2
2021/01/07 00:00:35;;;;;;;33.08;10.93;;;7.00;54.20;;;;;;7687605;23;20016;-78
2021/01/07 00:03:38;;;;;;;32.67;11.15;;;7.00;54.20;;;;;;7688166;23;20008;-78
2021/01/07 00:06:39;;;;;;;38.20;11.88;;;7.00;54.30;;;;;;7683757;23;20017;-77
2021/01/07 00:09:40;;;;;;;31.10;12.35;;;7.00;54.20;;;;;;7651357;23;20318;-79
2021/01/07 00:12:41;;;;;;;29.35;11.95;;;7.00;54.20;;;;;;7667159;23;20036;-79
2021/01/07 00:15:42;;;;;;;33.80;10.57;;;7.00;54.30;;;;;;7677930;23;20309;-79
2021/01/07 00:18:43;;;;;;;35.70;11.40;;;7.00;54.30;;;;;;7663832;23;20020;-78
2021/01/07 00:21:44;;;;;;;27.35;9.98;;;7.00;54.40;;;;;;7683978;23;20027;-79
2021/01/07 00:24:45;;;;;;;28.85;11.80;;;6.90;54.40;;;;;;7687878;23;20329;-79
2021/01/07 00:27:45;;;;;;;30.92;10.35;;;7.00;54.40;;;;;;7687795;23;20036;-79
2021/01/07 00:30:47;;;;;;;33.20;10.88;;;6.90;54.40;;;;;;7687761;23;20435;-79
2021/01/07 00:33:48;;;;;;;37.55;11.32;;;7.00;54.40;;;;;;7621877;23;20017;-79
2021/01/07 00:36:58;;;;;;;30.13;11.85;;;7.00;54.40;;;;;;7673689;23;20017;-79
2021/01/07 00:39:59;;;;;;;32.67;11.73;;;7.00;54.40;;;;;;7657065;23;20009;-79
2021/01/07 00:42:59;;;;;;;32.53;12.30;;;7.00;54.50;;;;;;7625519;23;20424;-79
2021/01/07 00:46:00;;;;;;;36.45;11.25;;;7.00;54.50;;;;;;7651084;23;20302;-79
2021/01/07 00:49:01;;;;;;;37.58;11.13;;;7.00;54.60;;;;;;7689872;23;20309;-79
2021/01/07 00:52:03;;;;;;;31.77;12.13;;;7.00;54.70;;;;;;7714351;23;20039;-79
2021/01/07 00:55:06;;;;;;;26.83;10.45;;;6.90;54.60;;;;;;7687783;23;20341;-80
2021/01/07 00:58:08;;;;;;;34.83;11.57;;;6.90;54.70;;;;;;7685805;23;20104;-79
2021/01/07 01:01:09;;;;;;;35.35;12.50;;;6.90;54.80;;;;;;7714981;23;20012;-78
2021/01/07 01:04:11;;;;;;;25.98;9.65;;;6.90;54.90;;;;;;7690671;23;20320;-79
2021/01/07 01:07:12;;;;;;;34.47;12.60;;;6.90;55.00;;;;;;7715591;23;20015;-79
2021/01/07 01:10:13;;;;;;;26.45;10.85;;;6.90;55.00;;;;;;7689661;23;20012;-79
2021/01/07 01:13:15;;;;;;;34.03;11.63;;;6.80;55.00;;;;;;7673575;23;20021;-79
2021/01/07 01:16:16;;;;;;;28.13;12.85;;;6.80;55.00;;;;;;7686796;23;20013;-79
2021/01/07 01:19:18;;;;;;;35.22;12.45;;;6.80;55.10;;;;;;7691689;23;20012;-78
2021/01/07 01:22:19;;;;;;;33.67;11.38;;;6.80;55.20;;;;;;7715568;23;20008;-79
2021/01/07 01:25:20;;;;;;;31.67;11.18;;;6.80;55.20;;;;;;7687888;23;20021;-79
2021/01/07 01:28:21;;;;;;;30.88;12.05;;;6.80;55.20;;;;;;7688497;23;20035;-79
2021/01/07 01:31:22;;;;;;;33.63;11.55;;;6.80;55.20;;;;;;7689750;23;20154;-79
2021/01/07 01:34:23;;;;;;;36.05;12.88;;;6.80;55.30;;;;;;7690584;23;20012;-78
2021/01/07 01:37:24;;;;;;;32.88;11.52;;;6.80;55.30;;;;;;7689323;23;20017;-78
2021/01/07 01:41:00;;;;;;;32.97;12.23;;;6.80;55.20;;;;;;7716207;23;20013;-80
2021/01/07 01:44:01;;;;;;;34.05;12.38;;;6.80;55.30;;;;;;7689781;23;20009;-78
2021/01/07 01:47:02;;;;;;;34.75;12.98;;;6.80;55.30;;;;;;7688204;23;20028;-78
2021/01/07 01:50:03;;;;;;;37.95;11.30;;;6.80;55.50;;;;;;7687915;23;20078;-79
2021/01/07 01:53:04;;;;;;;33.40;11.07;;;6.80;55.50;;;;;;7689154;23;20020;-79
2021/01/07 01:56:09;;;;;;;29.88;11.43;;;6.80;55.50;;;;;;7689413;23;20120;-79
2021/01/07 01:59:12;;;;;;;31.92;11.88;;;6.90;55.30;;;;;;7664927;23;20035;-78
2021/01/07 02:02:19;;;;;;;28.42;10.68;;;6.90;55.30;;;;;;7689724;23;20035;-79
2021/01/07 02:05:20;;;;;;;37.25;10.32;;;6.90;55.10;;;;;;7664849;23;20035;-78
2021/01/07 02:08:22;;;;;;;36.05;11.25;;;7.00;55.10;;;;;;7693245;23;20052;-80
2021/01/07 02:11:25;;;;;;;40.88;11.77;;;7.00;55.00;;;;;;7713378;23;20032;-78
2021/01/07 02:14:26;;;;;;;35.75;12.23;;;7.00;54.80;;;;;;7737770;23;20008;-79
2021/01/07 02:17:28;;;;;;;37.00;12.38;;;7.10;54.70;;;;;;7702611;23;20013;-79
2021/01/07 02:20:29;;;;;;;32.00;11.43;;;7.10;54.70;;;;;;7718131;23;20012;-79
2021/01/07 02:23:30;;;;;;;36.38;11.88;;;7.10;54.50;;;;;;7715696;23;20020;-79
2021/01/07 02:26:31;;;;;;;31.90;11.20;;;7.10;54.30;;;;;;7687520;23;20090;-79
2021/01/07 02:29:33;;;;;;;38.25;11.05;;;7.10;54.30;;;;;;7687698;23;20012;-80
2021/01/07 02:32:34;;;;;;;29.25;11.35;;;7.20;54.20;;;;;;7689456;23;20059;-78
2021/01/07 02:35:35;;;;;;;35.70;12.27;;;7.20;54.10;;;;;;7715701;23;20421;-78
2021/01/07 02:38:36;;;;;;;27.08;10.02;;;7.20;53.90;;;;;;7689377;23;20023;-78
2021/01/07 02:41:37;;;;;;;26.45;10.40;;;7.20;53.80;;;;;;7661863;23;20305;-78
2021/01/07 02:44:39;;;;;;;32.53;11.27;;;7.20;53.60;;;;;;7652677;23;20079;-78
2021/01/07 02:47:40;;;;;;;24.70;9.73;;;7.10;53.50;;;;;;7689247;23;20021;-78
2021/01/07 02:50:41;;;;;;;23.85;8.23;;;7.10;53.40;;;;;;7664409;23;20067;-79
2021/01/07 02:53:41;;;;;;;24.67;7.75;;;7.10;53.10;;;;;;7661822;23;20009;-78
2021/01/07 02:56:42;;;;;;;18.80;7.45;;;7.00;52.90;;;;;;7715602;23;20009;-78
2021/01/07 02:59:43;;;;;;;21.55;8.30;;;7.00;52.80;;;;;;7691061;23;20348;-80
2021/01/07 03:02:45;;;;;;;25.50;8.95;;;7.00;52.80;;;;;;7716804;23;20254;-79
2021/01/07 03:05:46;;;;;;;23.30;8.13;;;7.00;52.90;;;;;;7689321;23;20008;-79
2021/01/07 03:08:46;;;;;;;24.95;8.63;;;7.00;52.90;;;;;;7714287;23;20015;-79
2021/01/07 03:11:47;;;;;;;21.30;7.78;;;7.00;52.90;;;;;;7649038;23;20047;-80
2021/01/07 03:14:48;;;;;;;26.17;8.40;;;7.10;52.70;;;;;;7715107;23;20027;-79
2021/01/07 03:17:49;;;;;;;17.05;6.72;;;7.10;52.60;;;;;;7650410;23;20017;-80
2021/01/07 03:20:52;;;;;;;19.42;6.95;;;7.10;52.10;;;;;;7688318;23;20431;-79
2021/01/07 03:23:53;;;;;;;15.30;6.72;;;7.10;51.80;;;;;;7714365;23;20023;-78
2021/01/07 03:26:55;;;;;;;20.65;7.03;;;7.10;51.40;;;;;;7689179;23;20017;-79
2021/01/07 03:29:56;;;;;;;24.17;10.75;;;7.10;51.40;;;;;;7686913;23;20024;-79
2021/01/07 03:32:57;;;;;;;28.20;11.10;;;7.00;51.30;;;;;;7689048;23;20412;-79
2021/01/07 03:36:00;;;;;;;26.15;9.20;;;7.00;51.50;;;;;;7688370;23;20016;-78
2021/01/07 03:39:00;;;;;;;20.08;8.65;;;7.00;51.70;;;;;;7687648;23;20012;-79
2021/01/07 03:42:01;;;;;;;16.33;7.32;;;7.00;51.80;;;;;;7688878;23;20019;-79
2021/01/07 03:45:03;;;;;;;15.35;5.80;;;7.00;51.70;;;;;;7688647;23;20032;-79
2021/01/07 03:48:05;;;;;;;19.38;5.88;;;7.00;51.30;;;;;;7690714;23;20024;-80
2021/01/07 03:51:05;;;;;;;17.23;5.88;;;7.00;51.00;;;;;;7654214;23;20109;-79
2021/01/07 03:54:06;;;;;;;14.57;6.07;;;7.00;51.00;;;;;;7637174;23;20017;-79
2021/01/07 03:57:08;;;;;;;20.30;7.50;;;7.00;50.80;;;;;;7650751;23;20020;-79
2021/01/07 04:00:09;;;;;;;17.88;6.93;;;7.00;50.80;;;;;;7677771;23;20324;-79
2021/01/07 04:03:10;;;;;;;19.92;6.88;;;7.00;50.90;;;;;;7649654;23;20565;-79
2021/01/07 04:06:11;;;;;;;18.77;7.07;;;7.00;50.90;;;;;;7651471;23;20079;-78
2021/01/07 04:09:12;;;;;;;19.15;6.82;;;7.00;50.70;;;;;;7688184;23;20032;-78
2021/01/07 04:12:14;;;;;;;14.15;6.50;;;7.00;50.50;;;;;;7680731;23;20017;-78
2021/01/07 04:15:15;;;;;;;20.02;7.72;;;7.00;50.50;;;;;;7689316;23;20096;-78
2021/01/07 04:18:16;;;;;;;25.30;9.40;;;7.00;50.40;;;;;;7713857;23;20343;-78
2021/01/07 04:21:20;;;;;;;26.45;9.02;;;7.00;50.80;;;;;;7651338;23;20041;-78
2021/01/07 04:24:21;;;;;;;29.10;10.07;;;7.00;51.30;;;;;;7657248;23;20012;-78
2021/01/07 04:27:21;;;;;;;24.98;8.57;;;7.00;51.70;;;;;;7663266;23;20036;-78
2021/01/07 04:30:22;;;;;;;28.90;9.05;;;7.10;52.10;;;;;;7663713;23;20004;-78
2021/01/07 04:33:23;;;;;;;20.70;8.90;;;7.10;52.40;;;;;;7714405;23;20040;-79
2021/01/07 04:36:24;;;;;;;23.85;9.00;;;7.10;52.70;;;;;;7690752;23;20072;-80
2021/01/07 04:39:25;;;;;;;29.38;10.90;;;7.00;53.10;;;;;;7694663;23;20013;-79
2021/01/07 04:42:27;;;;;;;31.20;11.73;;;6.90;53.50;;;;;;7666539;23;20044;-79
2021/01/07 04:45:28;;;;;;;29.60;10.02;;;6.90;54.00;;;;;;7676934;23;20063;-79
2021/01/07 04:48:30;;;;;;;32.92;10.85;;;6.80;54.30;;;;;;7689368;23;20021;-79
2021/01/07 04:51:31;;;;;;;26.25;11.07;;;6.80;54.60;;;;;;7651001;23;20048;-79
2021/01/07 04:54:32;;;;;;;27.48;10.30;;;6.80;54.60;;;;;;7688254;23;20151;-78
2021/01/07 04:57:33;;;;;;;29.02;10.68;;;6.80;54.70;;;;;;7654205;23;20013;-79
2021/01/07 05:00:36;;;;;;;29.58;11.35;;;6.80;54.80;;;;;;7714117;23;20020;-79
2021/01/07 05:03:36;;;;;;;30.35;11.75;;;6.90;55.00;;;;;;7662764;23;20013;-81
2021/01/07 05:06:38;;;;;;;30.70;11.70;;;6.90;54.90;;;;;;7683253;23;20025;-77
2021/01/07 05:09:39;;;;;;;27.00;10.90;;;6.80;54.90;;;;;;7682444;23;20417;-77
2021/01/07 05:12:40;;;;;;;31.48;11.27;;;6.90;55.00;;;;;;7698372;23;20047;-77
2021/01/07 05:15:41;;;;;;;24.70;10.13;;;6.90;54.90;;;;;;7661002;23;20017;-80
2021/01/07 05:18:42;;;;;;;25.73;9.82;;;6.90;54.80;;;;;;7672928;23;20021;-79
2021/01/07 05:21:43;;;;;;;27.20;10.05;;;6.90;54.80;;;;;;7698784;23;20043;-79
2021/01/07 05:24:44;;;;;;;27.00;9.25;;;7.00;54.70;;;;;;7688964;23;20021;-78
2021/01/07 05:27:46;;;;;;;12.23;4.93;;;7.00;54.30;;;;;;7690446;23;20020;-79
2021/01/07 05:30:47;;;;;;;13.00;5.05;;;7.00;53.20;;;;;;7716713;23;20017;-78
2021/01/07 05:33:48;;;;;;;14.32;5.40;;;7.00;51.80;;;;;;7716516;23;20066;-78
2021/01/07 05:36:55;;;;;;;14.30;4.90;;;6.90;51.10;;;;;;7688017;23;20024;-78
2021/01/07 05:39:56;;;;;;;11.35;3.60;;;6.90;50.70;;;;;;7689582;23;20017;-78
2021/01/07 05:42:59;;;;;;;8.43;4.82;;;6.90;50.10;;;;;;7689890;23;20043;-78
2021/01/07 05:46:00;;;;;;;7.20;3.40;;;6.90;49.20;;;;;;7674354;23;20115;-78
2021/01/07 05:49:01;;;;;;;11.10;4.13;;;6.80;48.60;;;;;;7665742;23;20098;-78
2021/01/07 05:52:07;;;;;;;9.48;3.78;;;6.80;48.20;;;;;;7692792;23;20028;-78
2021/01/07 05:55:10;;;;;;;9.10;3.85;;;6.70;47.90;;;;;;7703829;23;20142;-77
2021/01/07 05:58:13;;;;;;;12.05;4.03;;;6.70;47.70;;;;;;7709463;23;20020;-77
2021/01/07 06:01:19;;;;;;;6.82;3.55;;;6.70;47.80;;;;;;7704541;23;20048;-77
2021/01/07 06:04:20;;;;;;;10.30;3.22;;;6.70;48.50;;;;;;7704963;23;20008;-75
2021/01/07 06:07:25;;;;;;;10.23;4.72;;;6.70;47.50;;;;;;7684630;23;20012;-75
2021/01/07 06:10:26;;;;;;;7.20;3.13;;;6.70;47.50;;;;;;7689834;23;20464;-75
2021/01/07 06:13:27;;;;;;;8.30;3.17;;;6.70;47.20;;;;;;7715813;23;20016;-76
2021/01/07 06:16:28;;;;;;;9.23;3.50;;;6.70;47.40;;;;;;7684694;23;20412;-76
2021/01/07 06:19:35;;;;;;;9.63;3.88;;;6.70;47.40;;;;;;7690762;23;20009;-77
2021/01/07 06:22:39;;;;;;;8.88;3.47;;;6.70;47.10;;;;;;7689580;23;20016;-79
2021/01/07 06:25:41;;;;;;;8.27;3.35;;;6.70;47.20;;;;;;7640604;23;20028;-77
2021/01/07 06:28:46;;;;;;;6.75;3.53;;;6.70;47.00;;;;;;7654635;23;20027;-77
2021/01/07 06:31:55;;;;;;;9.23;4.35;;;6.70;46.80;;;;;;7710842;23;20024;-78
2021/01/07 06:34:57;;;;;;;7.72;2.97;;;6.70;46.80;;;;;;7628503;23;20017;-78
2021/01/07 06:37:59;;;;;;;14.68;4.32;;;6.70;46.70;;;;;;7651136;23;20026;-77
2021/01/07 06:41:03;;;;;;;10.32;3.75;;;6.70;46.60;;;;;;7651541;23;20297;-77
2021/01/07 06:44:05;;;;;;;9.88;3.97;;;6.70;46.50;;;;;;7662571;23;20012;-77
2021/01/07 06:47:17;;;;;;;7.78;3.30;;;6.60;46.40;;;;;;7650822;23;20108;-77
2021/01/07 06:50:18;;;;;;;10.18;4.10;;;6.60;46.60;;;;;;7677853;23;20037;-77
2021/01/07 06:53:20;;;;;;;9.63;3.35;;;6.50;46.50;;;;;;7651641;23;20096;-78
2021/01/07 06:56:22;;;;;;;7.82;3.60;;;6.50;46.60;;;;;;7714305;23;20020;-77
2021/01/07 06:59:23;;;;;;;8.10;3.50;;;6.50;46.70;;;;;;7673620;23;20466;-78
2021/01/07 07:02:25;;;;;;;9.70;3.85;;;6.50;46.70;;;;;;7689176;23;20016;-77
2021/01/07 07:05:34;;;;;;;8.23;3.67;;;6.60;46.80;;;;;;7687577;23;20070;-78
2021/01/07 07:08:37;;;;;;;12.45;4.38;;;6.60;46.80;;;;;;7683360;23;20013;-78
2021/01/07 07:11:39;;;;;;;9.98;4.55;;;6.60;46.70;;;;;;7687009;23;20047;-76
2021/01/07 07:14:50;;;;;;;12.68;3.65;;;6.60;46.70;;;;;;7689030;23;20048;-76
2021/01/07 07:17:53;;;;;;;10.45;4.00;;;6.60;46.80;;;;;;7687284;23;20032;-75
2021/01/07 07:20:55;;;;;;;11.13;4.05;;;6.60;47.30;;;;;;7714788;23;20435;-74
2021/01/07 07:24:07;;;;;;;10.18;3.90;;;6.60;46.80;;;;;;7686128;23;20021;-76
2021/01/07 07:27:10;;;;;;;12.05;4.78;;;6.60;47.20;;;;;;7662681;23;20039;-76
2021/01/07 07:30:13;;;;;;;8.35;3.22;;;6.60;47.00;;;;;;7712022;23;20032;-78
2021/01/07 07:33:34;;;;;;;6.40;3.13;;;6.60;46.90;;;;;;7714866;23;20475;-78
2021/01/07 07:36:35;;;;;;;8.07;3.50;;;6.60;46.90;;;;;;7687836;23;20016;-76
2021/01/07 07:39:36;;;;;;;10.35;4.25;;;6.60;46.60;;;;;;7688097;23;20017;-76
2021/01/07 07:42:43;;;;;;;13.07;4.80;;;6.60;46.70;;;;;;7714734;23;20020;-76
2021/01/07 07:45:44;;;;;;;9.90;4.53;;;6.60;46.80;;;;;;7690531;23;20082;-76
2021/01/07 07:48:46;;;;;;;11.30;4.78;;;6.60;46.80;;;;;;7678691;23;20017;-76
2021/01/07 07:51:51;;;;;;;6.43;3.10;;;6.60;46.60;;;;;;7710736;23;20116;-75
2021/01/07 07:55:18;;;;;;;11.25;4.63;;;6.60;46.50;;;;;;7662504;23;20025;-74
2021/01/07 07:58:19;;;;;;;12.65;4.07;;;6.60;46.70;;;;;;7672223;23;20055;-74
2021/01/07 08:01:20;;;;;;;8.52;3.65;;;6.70;46.20;;;;;;7688294;23;20081;-74
2021/01/07 08:04:23;;;;;;;11.75;4.15;;;6.60;46.20;;;;;;7713455;23;20052;-75
2021/01/07 08:07:24;;;;;;;12.05;4.40;;;6.60;46.50;;;;;;7710135;23;20012;-75
2021/01/07 08:10:26;;;;;;;9.15;3.80;;;6.70;46.10;;;;;;7687546;23;20025;-73
2021/01/07 08:13:29;;;;;;;11.35;3.25;;;6.70;46.00;;;;;;7688078;23;20419;-75
2021/01/07 08:16:30;;;;;;;8.57;4.18;;;6.70;46.00;;;;;;7687878;23;20069;-73
2021/01/07 08:19:33;;;;;;;10.40;4.18;;;6.70;46.10;;;;;;7687975;23;20008;-74
2021/01/07 08:22:33;;;;;;;9.85;3.90;;;6.70;45.90;;;;;;7713879;23;20036;-74
2021/01/07 08:25:35;;;;;;;11.52;4.05;;;6.70;45.90;;;;;;7687527;23;20495;-74
2021/01/07 08:28:44;;;;;;;9.95;4.20;;;6.70;45.80;;;;;;7710715;23;20041;-73
2021/01/07 08:31:47;;;;;;;7.68;3.95;;;6.70;45.80;;;;;;7686296;23;20044;-75
2021/01/07 08:34:49;;;;;;;12.15;5.25;;;6.70;45.80;;;;;;7663288;23;20024;-74
2021/01/07 08:37:50;;;;;;;8.00;3.22;;;6.70;45.90;;;;;;7687514;23;20087;-75
2021/01/07 08:40:54;;;;;;;9.95;4.70;;;6.70;45.60;;;;;;7686708;23;20025;-74
2021/01/07 08:43:56;;;;;;;10.45;4.38;;;6.70;45.50;;;;;;7687065;23;20091;-74
2021/01/07 08:46:57;;;;;;;9.90;4.32;;;6.70;45.50;;;;;;7687018;23;20012;-75
2021/01/07 08:50:04;;;;;;;9.48;4.20;;;6.70;45.50;;;;;;7686741;23;20328;-80
2021/01/07 08:53:14;;;;;;;13.20;3.78;;;6.70;45.80;;;;;;7687521;23;20013;-74
2021/01/07 08:56:34;;;;;;;8.48;4.07;;;6.80;45.70;;;;;;7712818;23;20017;-77
2021/01/07 08:59:38;;;;;;;10.27;4.57;;;6.90;45.80;;;;;;7683941;23;20012;-75
2021/01/07 09:02:38;;;;;;;14.88;4.88;;;6.90;45.80;;;;;;7686407;23;20016;-76
2021/01/07 09:05:40;;;;;;;20.17;5.90;;;7.00;45.90;;;;;;7712732;23;20017;-75
2021/01/07 09:08:41;;;;;;;16.48;6.22;;;7.10;46.40;;;;;;7698602;23;20031;-75
2021/01/07 09:11:42;;;;;;;13.48;6.13;;;7.10;46.60;;;;;;7711282;23;20024;-76
2021/01/07 09:14:44;;;;;;;12.95;5.80;;;7.20;46.80;;;;;;7687010;23;20412;-75
2021/01/07 09:17:46;;;;;;;11.68;5.13;;;7.20;46.70;;;;;;7686462;23;20067;-74
2021/01/07 09:20:47;;;;;;;18.98;5.80;;;7.20;46.80;;;;;;7686821;23;20019;-75
2021/01/07 09:23:50;;;;;;;17.88;7.43;;;7.30;46.80;;;;;;7686608;23;20112;-84
2021/01/07 09:26:50;;;;;;;12.95;5.70;;;7.30;46.90;;;;;;7686263;23;20115;-76
2021/01/07 09:29:51;;;;;;;19.77;6.10;;;7.30;46.70;;;;;;7684730;23;20095;-76
2021/01/07 09:32:55;;;;;;;13.32;5.18;;;7.30;46.60;;;;;;7711730;23;20016;-75
2021/01/07 09:35:56;;;;;;;13.68;5.00;;;7.30;46.60;;;;;;7687332;23;20027;-76
2021/01/07 09:38:57;;;;;;;16.45;5.93;;;7.30;46.40;;;;;;7662177;23;20012;-76
2021/01/07 09:41:58;;;;;;;16.67;5.55;;;7.40;46.40;;;;;;7713387;23;20012;-76
2021/01/07 09:45:00;;;;;;;15.60;5.43;;;7.40;46.30;;;;;;7714237;23;20052;-74
2021/01/07 09:48:01;;;;;;;20.85;5.90;;;7.50;46.30;;;;;;7686835;23;20030;-75
2021/01/07 09:51:01;;;;;;;15.05;5.93;;;7.60;46.20;;;;;;7714307;23;20016;-76
2021/01/07 09:54:03;;;;;;;15.25;6.57;;;7.70;46.20;;;;;;7715465;23;20396;-77
2021/01/07 09:57:04;;;;;;;14.82;5.75;;;7.70;46.00;;;;;;7706605;23;20032;-77
2021/01/07 10:00:06;;;;;;;11.75;5.30;;;7.80;46.00;;;;;;7652566;23;20005;-76
2021/01/07 10:03:08;;;;;;;15.30;7.40;;;7.80;45.60;;;;;;7691924;23;20015;-77
2021/01/07 10:06:09;;;;;;;14.65;5.43;;;7.80;45.60;;;;;;7717435;23;20442;-78
2021/01/07 10:09:10;;;;;;;17.67;6.05;;;7.80;45.60;;;;;;7716286;23;20086;-79
2021/01/07 10:12:11;;;;;;;18.95;7.40;;;7.80;45.50;;;;;;7688656;23;20020;-78
2021/01/07 10:15:12;;;;;;;29.48;7.68;;;7.90;45.50;;;;;;7715512;23;20017;-77
2021/01/07 10:18:13;;;;;;;43.53;17.10;;;7.90;45.50;;;;;;7664382;23;20427;-76
2021/01/07 10:21:18;;;;;;;20.60;8.90;;;8.00;46.20;;;;;;7688621;23;20095;-79
2021/01/07 10:24:19;;;;;;;20.05;7.03;;;8.00;45.70;;;;;;7715001;23;20103;-76
2021/01/07 10:27:20;;;;;;;16.92;6.10;;;8.00;45.70;;;;;;7687565;23;20017;-77
2021/01/07 10:30:21;;;;;;;13.88;5.72;;;8.10;45.50;;;;;;7688550;23;20113;-77
2021/01/07 10:33:23;;;;;;;18.45;6.72;;;8.10;45.40;;;;;;7663424;23;20086;-77
2021/01/07 10:36:24;;;;;;;28.00;10.25;;;8.20;45.30;;;;;;7689732;23;20017;-77
2021/01/07 10:39:25;;;;;;;17.83;6.57;;;8.20;45.20;;;;;;7690106;23;20024;-77
2021/01/07 10:42:26;;;;;;;13.52;6.00;;;8.20;45.00;;;;;;7688464;23;20013;-78
2021/01/07 10:45:27;;;;;;;31.60;6.50;;;8.20;44.90;;;;;;7689038;23;20083;-76
2021/01/07 10:48:30;;;;;;;15.90;5.93;;;8.20;44.90;;;;;;7673770;23;20012;-77
2021/01/07 10:51:50;;;;;;;14.30;5.47;;;8.20;44.60;;;;;;7693943;23;20096;-76
2021/01/07 10:55:13;;;;;;;12.75;5.38;;;8.20;44.50;;;;;;7676855;23;20096;-79
2021/01/07 10:58:44;;;;;;;13.00;5.68;;;8.30;44.50;;;;;;7675488;23;20021;-77
2021/01/07 11:02:13;;;;;;;15.82;5.70;;;8.30;44.40;;;;;;7676794;23;20021;-77
2021/01/07 11:05:19;;;;;;;18.87;4.93;;;8.30;44.20;;;;;;7675463;23;20120;-76
2021/01/07 11:08:38;;;;;;;15.82;5.53;;;8.40;44.00;;;;;;7675504;23;20017;-74
2021/01/07 11:11:45;;;;;;;14.85;6.63;;;8.50;43.60;;;;;;7675942;23;20032;-79
2021/01/07 11:15:04;;;;;;;16.23;5.95;;;8.50;43.60;;;;;;7677517;23;20017;-78
2021/01/07 11:18:12;;;;;;;15.63;6.65;;;8.50;43.60;;;;;;7676095;23;20017;-78
2021/01/07 11:21:21;;;;;;;19.27;6.32;;;8.60;43.60;;;;;;7674468;23;20013;-79
2021/01/07 11:24:24;;;;;;;14.85;6.18;;;8.70;43.40;;;;;;7674345;23;20061;-79
2021/01/07 11:27:26;;;;;;;12.90;5.50;;;8.80;43.30;;;;;;7676192;23;20013;-80
2021/01/07 11:30:27;;;;;;;14.23;5.60;;;8.80;42.80;;;;;;7680220;23;20020;-80
2021/01/07 11:33:33;;;;;;;26.92;8.95;;;8.80;42.80;;;;;;7676106;23;20028;-79
2021/01/07 11:36:41;;;;;;;19.60;6.95;;;8.80;42.90;;;;;;7678298;23;20012;-80
2021/01/07 11:40:06;;;;;;;16.63;6.33;;;8.90;42.80;;;;;;7673048;23;20028;-80
2021/01/07 11:43:14;;;;;;;11.48;4.55;;;9.10;42.50;;;;;;7671924;23;20013;-80
2021/01/07 11:46:18;;;;;;;10.15;4.90;;;9.20;41.80;;;;;;7649908;23;20075;-79
2021/01/07 11:49:19;;;;;;;12.50;4.90;;;9.30;42.00;;;;;;7680101;23;20032;-80
2021/01/07 11:52:21;;;;;;;17.15;5.68;;;9.60;40.80;;;;;;7688032;23;20032;-80
2021/01/07 11:55:23;;;;;;;14.00;5.65;;;9.90;40.40;;;;;;7713841;23;20297;-80
2021/01/07 11:58:24;;;;;;;15.48;5.75;;;10.10;40.00;;;;;;7687970;23;20455;-80
2021/01/07 12:01:31;;;;;;;14.18;5.30;;;10.20;39.90;;;;;;7651523;23;20037;-79
2021/01/07 12:04:34;;;;;;;12.40;4.78;;;10.20;39.50;;;;;;7661996;23;20027;-79
2021/01/07 12:08:04;;;;;;;11.48;4.60;;;10.30;39.50;;;;;;7687975;23;20008;-79
2021/01/07 12:11:11;;;;;;;12.90;4.28;;;10.40;39.30;;;;;;7574606;23;20014;-79
2021/01/07 12:14:16;;;;;;;13.43;5.82;;;10.30;38.90;;;;;;7599947;23;20013;-80
2021/01/07 12:17:17;;;;;;;11.15;5.50;;;10.30;38.90;;;;;;7600561;23;20018;-81
2021/01/07 12:20:18;;;;;;;12.60;5.38;;;10.20;38.90;;;;;;7570905;23;20018;-79
2021/01/07 12:23:20;;;;;;;13.25;5.80;;;10.20;38.70;;;;;;7539120;23;20325;-76
2021/01/07 12:26:21;;;;;;;15.23;5.40;;;10.10;38.40;;;;;;7596959;23;20302;-80
2021/01/07 12:29:23;;;;;;;15.75;5.35;;;10.00;38.60;;;;;;7571677;23;20085;-78
2021/01/07 12:32:33;;;;;;;17.67;5.65;;;9.80;38.40;;;;;;7575587;23;20050;-76
2021/01/07 12:35:36;;;;;;;12.93;4.70;;;9.70;38.70;;;;;;7596580;23;20105;-77
2021/01/07 12:39:01;;;;;;;11.43;5.15;;;9.70;38.90;;;;;;7572794;23;20101;-75
2021/01/07 12:42:13;;;;;;;12.73;5.13;;;9.60;38.40;;;;;;7574976;23;20369;-76
2021/01/07 12:45:16;;;;;;;17.00;5.28;;;9.50;38.30;;;;;;7550494;23;20014;-75
2021/01/07 12:48:19;;;;;;;10.55;4.75;;;9.40;38.40;;;;;;7655238;23;20019;-76
2021/01/07 12:51:21;;;;;;;15.80;5.70;;;9.40;39.00;;;;;;7712660;23;20039;-75
2021/01/07 12:54:23;;;;;;;9.68;4.13;;;9.30;38.80;;;;;;7687829;23;20025;-76
2021/01/07 12:57:28;;;;;;;18.38;6.70;;;9.40;38.80;;;;;;7687066;23;20349;-75
2021/01/07 13:00:36;;;;;;;15.20;5.85;;;9.40;38.40;;;;;;7661500;23;20012;-80
2021/01/07 13:04:22;;;;;;;14.80;5.85;;;9.30;38.60;;;;;;7712544;23;20328;-75
2021/01/07 13:07:28;;;;;;;16.90;5.65;;;9.30;38.70;;;;;;7687542;23;20001;-76
2021/01/07 13:10:31;;;;;;;15.23;6.30;;;9.40;38.60;;;;;;7728867;23;20019;-76
2021/01/07 13:13:45;;;;;;;11.93;4.97;;;9.40;38.90;;;;;;7726502;23;20031;-74
2021/01/07 13:16:46;;;;;;;12.95;5.05;;;9.40;38.90;;;;;;7719009;23;20289;-74
2021/01/07 13:19:48;;;;;;;11.32;5.20;;;9.40;38.70;;;;;;7689873;23;20017;-75
2021/01/07 13:22:49;;;;;;;16.17;6.60;;;9.40;38.90;;;;;;7687710;23;20024;-75
2021/01/07 13:25:54;;;;;;;14.52;5.75;;;9.40;38.60;;;;;;7714858;23;20016;-75
2021/01/07 13:28:56;;;;;;;14.52;5.95;;;9.30;38.70;;;;;;7715333;23;20009;-76
2021/01/07 13:31:57;;;;;;;12.88;5.05;;;9.30;38.70;;;;;;7689796;23;20392;-76
2021/01/07 13:34:58;;;;;;;14.85;5.68;;;9.30;38.60;;;;;;7715651;23;20017;-74
2021/01/07 13:38:02;;;;;;;12.82;5.47;;;9.30;38.60;;;;;;7689556;23;20321;-76
2021/01/07 13:41:06;;;;;;;15.90;4.65;;;9.30;39.10;;;;;;7675571;23;20096;-75
2021/01/07 13:44:12;;;;;;;13.75;5.53;;;9.20;38.40;;;;;;7689728;23;20036;-74
2021/01/07 13:47:20;;;;;;;12.60;5.25;;;9.10;38.40;;;;;;7688570;23;20005;-74
2021/01/07 13:50:23;;;;;;;14.13;5.55;;;9.00;38.50;;;;;;7686661;23;20086;-74
2021/01/07 13:53:25;;;;;;;16.55;5.28;;;8.90;39.40;;;;;;7689121;23;20028;-74
2021/01/07 13:56:29;;;;;;;11.30;4.38;;;8.90;39.50;;;;;;7688748;23;20355;-74
2021/01/07 13:59:31;;;;;;;20.95;9.45;;;8.90;38.80;;;;;;7664832;23;20012;-76
2021/01/07 14:02:33;;;;;;;13.43;6.28;;;8.90;38.90;;;;;;7664142;23;20013;-75
2021/01/07 14:05:39;;;;;;;18.27;6.13;;;8.90;38.90;;;;;;7687000;23;20008;-75
2021/01/07 14:08:57;;;;;;;14.90;5.80;;;8.90;39.00;;;;;;7664223;23;20013;-74
2021/01/07 14:12:01;;;;;;;18.38;6.40;;;8.90;39.30;;;;;;7688199;23;20306;-74
2021/01/07 14:15:02;;;;;;;13.88;5.47;;;9.00;39.40;;;;;;7688408;23;20017;-74
2021/01/07 14:18:05;;;;;;;10.57;4.60;;;9.10;39.30;;;;;;7688962;23;20043;-75
2021/01/07 14:21:07;;;;;;;14.27;5.85;;;9.20;39.00;;;;;;7687340;23;20016;-74
2021/01/07 14:24:12;;;;;;;12.02;5.05;;;9.20;38.90;;;;;;7688242;23;20020;-75
2021/01/07 14:27:33;;;;;;;11.55;5.40;;;9.20;39.00;;;;;;7688621;23;20356;-76
2021/01/07 14:30:34;;;;;;;19.45;5.47;;;9.20;39.00;;;;;;7714469;23;20306;-75
2021/01/07 14:33:39;;;;;;;10.90;5.05;;;9.20;38.90;;;;;;7686761;23;20332;-75
2021/01/07 14:36:41;;;;;;;12.45;5.47;;;9.10;38.80;;;;;;7686408;23;20052;-75
2021/01/07 14:39:42;;;;;;;15.07;5.57;;;9.00;38.60;;;;;;7714055;23;20027;-75
2021/01/07 14:42:45;;;;;;;15.85;5.75;;;8.90;38.80;;;;;;7687788;23;20346;-76
2021/01/07 14:45:47;;;;;;;15.07;5.20;;;8.80;38.90;;;;;;7662895;23;20092;-78
2021/01/07 14:48:56;;;;;;;11.85;5.18;;;8.70;39.10;;;;;;7688084;23;20321;-76
2021/01/07 14:51:59;;;;;;;15.18;5.10;;;8.60;39.30;;;;;;7714922;23;20017;-74
2021/01/07 14:55:04;;;;;;;12.23;5.20;;;8.60;39.60;;;;;;7662235;23;20012;-75
2021/01/07 14:58:25;;;;;;;18.77;5.93;;;8.60;39.70;;;;;;7714068;23;20300;-75
2021/01/07 15:01:33;;;;;;;12.38;4.78;;;8.60;39.60;;;;;;7714329;23;20062;-75
2021/01/07 15:04:59;;;;;;;14.82;5.80;;;8.60;39.70;;;;;;7687737;23;20035;-75
2021/01/07 15:08:19;;;;;;;10.93;4.82;;;8.50;39.80;;;;;;7712292;23;20009;-76
2021/01/07 15:11:25;;;;;;;13.43;5.15;;;8.50;39.80;;;;;;7685677;23;20080;-76
2021/01/07 15:14:28;;;;;;;12.65;5.35;;;8.50;39.90;;;;;;7688382;23;20067;-75
2021/01/07 15:17:45;;;;;;;12.20;5.85;;;8.50;40.00;;;;;;7688136;23;20092;-75
2021/01/07 15:21:08;;;;;;;11.38;4.50;;;8.50;40.00;;;;;;7662836;23;20043;-75
2021/01/07 15:24:52;;;;;;;11.43;5.35;;;8.60;40.00;;;;;;7687753;23;20416;-76
2021/01/07 15:28:13;;;;;;;8.45;4.43;;;8.60;40.00;;;;;;7713621;23;20013;-74
2021/01/07 15:31:45;;;;;;;12.00;5.38;;;8.60;39.80;;;;;;7688039;23;20123;-76
2021/01/07 15:35:06;;;;;;;16.73;6.35;;;8.50;39.80;;;;;;7611828;23;20053;-75
2021/01/07 15:38:58;;;;;;;12.07;5.53;;;8.50;40.70;;;;;;7587790;23;20018;-75
2021/01/07 15:42:26;;;;;;;14.27;5.47;;;8.30;40.20;;;;;;7612915;23;20037;-75
2021/01/07 15:46:03;;;;;;;16.55;5.65;;;8.30;40.30;;;;;;7613678;23;20009;-74
2021/01/07 15:49:50;;;;;;;13.45;5.57;;;8.20;40.30;;;;;;7636515;23;20026;-77
2021/01/07 15:53:05;;;;;;;13.00;5.60;;;8.20;40.50;;;;;;7506437;23;20501;-74
2021/01/07 15:56:27;;;;;;;12.70;5.70;;;8.10;40.40;;;;;;7534319;23;20089;-75
2021/01/07 15:59:59;;;;;;;11.45;5.00;;;8.00;40.60;;;;;;7536539;23;20039;-75